createdAt,value
2017-12-21T00:00:02.135Z,6.7
2017-12-21T00:05:01.686Z,6.7
2017-12-21T00:10:01.813Z,6.7
2017-12-21T00:15:01.294Z,6.7
2017-12-21T00:20:02.029Z,6.7
2017-12-21T00:25:01.948Z,6.7
2017-12-21T00:30:01.779Z,6.7
2017-12-21T00:35:01.238Z,6.7
2017-12-21T00:40:02.421Z,6.8
2017-12-21T00:45:01.884Z,6.7
2017-12-21T00:50:01.575Z,6.7
2017-12-21T00:55:01.370Z,6.8
2017-12-21T01:00:01.709Z,6.8
2017-12-21T01:05:01.956Z,6.8
2017-12-21T01:10:01.792Z,6.8
2017-12-21T01:15:02.465Z,6.8
2017-12-21T01:20:02.126Z,6.8
2017-12-21T01:25:01.785Z,6.8
2017-12-21T01:30:01.430Z,6.8
2017-12-21T01:35:02.397Z,6.8
2017-12-21T01:40:02.055Z,6.8
2017-12-21T01:45:01.800Z,6.8
2017-12-21T01:50:01.559Z,6.8
2017-12-21T01:55:02.445Z,6.8
2017-12-21T02:00:01.296Z,6.8
2017-12-21T02:05:01.956Z,6.9
2017-12-21T02:10:01.773Z,6.9
2017-12-21T02:15:02.170Z,6.9
2017-12-21T02:20:01.771Z,6.9
2017-12-21T02:25:01.356Z,7
2017-12-21T02:30:01.327Z,7
2017-12-21T02:35:01.958Z,7
2017-12-21T02:40:01.661Z,7
2017-12-21T02:45:01.352Z,7
2017-12-21T02:50:01.701Z,7
2017-12-21T02:55:01.605Z,7.1
2017-12-21T03:00:01.585Z,7.1
2017-12-21T03:05:02.556Z,7.1
2017-12-21T03:10:01.384Z,7.1
2017-12-21T03:15:02.075Z,7.1
2017-12-21T03:20:01.846Z,7.1
2017-12-21T03:25:02.543Z,7.1
2017-12-21T03:30:01.637Z,7.1
2017-12-21T03:35:01.629Z,7.1
2017-12-21T03:40:01.809Z,7.1
2017-12-21T03:45:01.995Z,7.1
2017-12-21T03:50:01.540Z,7.2
2017-12-21T03:55:02.140Z,7.2
2017-12-21T04:00:02.600Z,7.2
2017-12-21T04:05:01.893Z,7.2
2017-12-21T04:10:01.756Z,7.2
2017-12-21T04:15:01.643Z,7.2
2017-12-21T04:20:01.928Z,7.2
2017-12-21T04:25:01.920Z,7.3
2017-12-21T04:30:01.962Z,7.3
2017-12-21T04:35:02.151Z,7.3
2017-12-21T04:40:01.365Z,7.3
2017-12-21T04:45:01.287Z,7.3
2017-12-21T04:50:01.467Z,7.2
2017-12-21T04:55:01.801Z,7.2
2017-12-21T05:00:01.813Z,7.2
2017-12-21T05:05:01.493Z,7.2
2017-12-21T05:10:01.812Z,7.2
2017-12-21T05:15:01.384Z,7.2
2017-12-21T05:20:01.261Z,7.2
2017-12-21T05:25:02.042Z,7.1
2017-12-21T05:30:01.585Z,7.1
2017-12-21T05:35:01.480Z,7.1
2017-12-21T05:40:01.733Z,7.1
2017-12-21T05:45:01.195Z,7.1
2017-12-21T05:50:01.247Z,7.1
2017-12-21T05:55:04.480Z,7
2017-12-21T06:00:01.249Z,7
2017-12-21T06:05:02.028Z,7
2017-12-21T06:10:01.920Z,7
2017-12-21T06:15:01.503Z,7
2017-12-21T06:20:01.478Z,7
2017-12-21T06:25:01.861Z,6.9
2017-12-21T06:30:02.461Z,6.9
2017-12-21T06:35:01.536Z,6.9
2017-12-21T06:40:01.401Z,6.9
2017-12-21T06:45:02.446Z,6.8
2017-12-21T06:50:01.363Z,6.8
2017-12-21T06:55:01.831Z,6.8
2017-12-21T07:00:01.883Z,6.8
2017-12-21T07:05:01.999Z,6.8
2017-12-21T07:10:01.652Z,6.8
2017-12-21T07:15:01.623Z,6.8
2017-12-21T07:20:01.981Z,6.6
2017-12-21T07:25:01.863Z,6.6
2017-12-21T07:30:02.018Z,6.4
2017-12-21T07:35:02.387Z,6.4
2017-12-21T07:40:01.313Z,6.4
2017-12-21T07:45:01.631Z,6.4
2017-12-21T07:50:01.956Z,6.4
2017-12-21T07:55:02.330Z,6.4
2017-12-21T08:00:01.391Z,6.4
2017-12-21T08:05:01.672Z,6.4
2017-12-21T08:10:01.958Z,6.4
2017-12-21T08:15:01.527Z,6.4
2017-12-21T08:20:01.291Z,6.4
2017-12-21T08:25:02.064Z,6.4
2017-12-21T08:30:01.761Z,6.4
2017-12-21T08:35:01.285Z,5.7
2017-12-21T08:40:02.126Z,5.7
2017-12-21T08:45:01.805Z,5.6
2017-12-21T08:50:02.184Z,5.6
2017-12-21T08:55:01.859Z,5.6
2017-12-21T09:00:02.094Z,5.6
2017-12-21T09:05:01.500Z,5.6
2017-12-21T09:10:01.945Z,5.7
2017-12-21T09:15:01.368Z,5.7
2017-12-21T09:20:02.160Z,5.8
2017-12-21T09:25:01.980Z,5.9
2017-12-21T09:30:01.455Z,5.9
2017-12-21T09:35:01.675Z,5.9
2017-12-21T09:40:01.600Z,6
2017-12-21T09:45:02.471Z,6.1
2017-12-21T09:50:01.420Z,6.1
2017-12-21T09:55:01.398Z,6.2
2017-12-21T10:00:01.277Z,6.3
2017-12-21T10:05:02.043Z,6.3
2017-12-21T10:10:01.874Z,6.3
2017-12-21T10:15:01.790Z,6.3
2017-12-21T10:20:01.937Z,6.3
2017-12-21T10:25:01.475Z,6.3
2017-12-21T10:30:01.996Z,6.3
2017-12-21T10:35:02.039Z,6.3
2017-12-21T10:40:01.964Z,6.5
2017-12-21T10:45:01.259Z,6.5
2017-12-21T10:50:01.669Z,6.5
2017-12-21T10:55:01.878Z,6.5
2017-12-21T11:00:01.323Z,6.5
2017-12-21T11:05:02.340Z,6.5
2017-12-21T11:10:01.233Z,6.5
2017-12-21T11:15:01.875Z,6.5
2017-12-21T11:20:01.559Z,6.5
2017-12-21T11:25:02.163Z,6.5
2017-12-21T11:30:01.320Z,6.5
2017-12-21T11:35:01.558Z,6.5
2017-12-21T11:40:01.625Z,6.5
2017-12-21T11:45:01.729Z,6.5
2017-12-21T11:50:01.547Z,6.5
2017-12-21T11:55:01.383Z,6.5
2017-12-21T12:00:02.938Z,6.5
2017-12-21T12:05:01.803Z,6.5
2017-12-21T12:10:01.694Z,6.6
2017-12-21T12:15:01.988Z,6.6
2017-12-21T12:20:02.222Z,6.6
2017-12-21T12:25:01.260Z,6.6
2017-12-21T12:30:01.665Z,6.6
2017-12-21T12:35:01.989Z,6.6
2017-12-21T12:40:02.280Z,6.6
2017-12-21T12:45:01.920Z,6.6
2017-12-21T12:50:01.841Z,6.6
2017-12-21T12:55:01.512Z,6.6
2017-12-21T13:00:02.275Z,6.6
2017-12-21T13:05:01.995Z,6.6
2017-12-21T13:10:01.872Z,6.6
2017-12-21T13:15:01.656Z,6.6
2017-12-21T13:20:01.706Z,6.6
2017-12-21T13:25:02.013Z,6.6
2017-12-21T13:30:01.547Z,6.6
2017-12-21T13:35:01.834Z,6.6
2017-12-21T13:40:01.498Z,6.6
2017-12-21T13:45:01.549Z,6.6
2017-12-21T13:50:02.029Z,6.5
2017-12-21T13:55:01.165Z,6.5
2017-12-21T14:00:01.882Z,6.5
2017-12-21T14:05:02.255Z,6.5
2017-12-21T14:10:02.114Z,6.4
2017-12-21T14:15:01.266Z,6.4
2017-12-21T14:20:02.487Z,6.4
2017-12-21T14:25:01.479Z,6.4
2017-12-21T14:30:02.090Z,6.4
2017-12-21T14:35:02.041Z,6.2
2017-12-21T14:40:02.025Z,6.2
2017-12-21T14:45:02.036Z,6.2
2017-12-21T14:50:02.031Z,6.2
2017-12-21T14:55:01.477Z,6.2
2017-12-21T15:00:01.222Z,6.2
2017-12-21T15:05:01.718Z,6.1
2017-12-21T15:10:01.971Z,6.1
2017-12-21T15:15:01.823Z,6.1
2017-12-21T15:20:01.619Z,6.1
2017-12-21T15:25:01.704Z,6.1
2017-12-21T15:30:01.825Z,6.1
2017-12-21T15:35:01.656Z,6.1
2017-12-21T15:40:01.935Z,6.1
2017-12-21T15:45:01.707Z,6.1
2017-12-21T15:50:01.729Z,6.1
2017-12-21T15:55:01.739Z,6.1
2017-12-21T16:00:01.798Z,6.1
2017-12-21T16:05:02.015Z,6.1
2017-12-21T16:10:02.495Z,6.1
2017-12-21T16:15:02.042Z,6.1
2017-12-21T16:20:01.795Z,5.8
2017-12-21T16:25:01.598Z,5.8
2017-12-21T16:30:02.183Z,5.8
2017-12-21T16:35:01.466Z,5.8
2017-12-21T16:40:01.237Z,5.8
2017-12-21T16:45:01.707Z,5.8
2017-12-21T16:50:02.112Z,5.8
2017-12-21T16:55:01.792Z,5.8
2017-12-21T17:00:01.851Z,5.8
2017-12-21T17:05:01.580Z,5.8
2017-12-21T17:10:01.680Z,5.8
2017-12-21T17:15:02.109Z,6
2017-12-21T17:20:02.014Z,6
2017-12-21T17:25:01.534Z,6
2017-12-21T17:30:02.384Z,6
2017-12-21T17:35:01.528Z,6
2017-12-21T17:40:01.953Z,6
2017-12-21T17:45:02.463Z,6
2017-12-21T17:50:01.309Z,6
2017-12-21T17:55:01.788Z,6
2017-12-21T18:00:01.970Z,6
2017-12-21T18:05:02.108Z,6
2017-12-21T18:10:01.765Z,6
2017-12-21T18:15:02.156Z,6
2017-12-21T18:20:02.523Z,6.2
2017-12-21T18:25:01.679Z,6.2
2017-12-21T18:30:01.664Z,6.2
2017-12-21T18:35:02.037Z,6.2
2017-12-21T18:40:02.183Z,6.2
2017-12-21T18:45:01.984Z,6.2
2017-12-21T18:50:01.964Z,6.2
2017-12-21T18:55:01.234Z,6.2
2017-12-21T19:00:02.499Z,6.2
2017-12-21T19:05:01.816Z,6.2
2017-12-21T19:10:02.058Z,5.9
2017-12-21T19:15:02.572Z,5.9
2017-12-21T19:20:01.300Z,5.9
2017-12-21T19:25:01.654Z,5.9
2017-12-21T19:30:01.764Z,5.9
2017-12-21T19:35:02.148Z,5.9
2017-12-21T19:40:02.164Z,5.9
2017-12-21T19:45:01.692Z,5.9
2017-12-21T19:50:01.709Z,6
2017-12-21T19:55:02.242Z,6
2017-12-21T20:00:01.173Z,6
2017-12-21T20:05:01.675Z,6
2017-12-21T20:10:01.462Z,6
2017-12-21T20:15:01.337Z,6
2017-12-21T20:20:01.990Z,6
2017-12-21T20:25:02.099Z,6
2017-12-21T20:30:01.173Z,6
2017-12-21T20:35:02.317Z,6
2017-12-21T20:40:01.977Z,6
2017-12-21T20:45:01.399Z,6
2017-12-21T20:50:01.316Z,6
2017-12-21T20:55:01.539Z,6
2017-12-21T21:00:01.511Z,6
2017-12-21T21:05:02.143Z,6
2017-12-21T21:10:01.848Z,6
2017-12-21T21:15:02.250Z,6
2017-12-21T21:20:02.135Z,6
2017-12-21T21:25:01.532Z,6
2017-12-21T21:30:01.548Z,6.3
2017-12-21T21:35:02.292Z,6.3
2017-12-21T21:40:01.977Z,6.3
2017-12-21T21:45:01.199Z,6.3
2017-12-21T21:50:02.039Z,6.3
2017-12-21T21:55:02.020Z,6.3
2017-12-21T22:00:02.051Z,6.3
2017-12-21T22:05:02.024Z,6.3
2017-12-21T22:10:02.404Z,6.6
2017-12-21T22:15:02.009Z,6.6
2017-12-21T22:20:01.227Z,6.7
2017-12-21T22:25:01.651Z,6.7
2017-12-21T22:30:02.078Z,6.7
2017-12-21T22:35:01.439Z,6.7
2017-12-21T22:40:01.427Z,6.7
2017-12-21T22:45:01.478Z,6.8
2017-12-21T22:50:01.796Z,6.8
2017-12-21T22:55:01.861Z,6.8
2017-12-21T23:00:01.993Z,6.8
2017-12-21T23:05:02.052Z,6.8
2017-12-21T23:10:01.587Z,6.8
2017-12-21T23:15:01.596Z,6.8
2017-12-21T23:20:01.618Z,6.8
2017-12-21T23:25:01.195Z,6.8
2017-12-21T23:30:02.152Z,6.8
2017-12-21T23:35:01.320Z,6.8
2017-12-21T23:40:01.815Z,6.8
2017-12-21T23:45:01.477Z,6.8
2017-12-21T23:50:01.288Z,6.8
2017-12-21T23:55:02.223Z,6.8
